Time;durP1;ratioP1;P1;durP2;ratioP2;P2;SDS_P1;SDS_P2;PMS_P1;PMS_P2;Temp;Humidity;BMP_temperature;BMP_pressure;BME280_temperature;BME280_humidity;BME280_pressure;Samples;Min_cycle;Max_cycle;Signal;HPM_P1;HPM_P2
2024/01/23 05:24:07;;;;;;;47.50;22.70;;;;;;;0.68;100.00;99245.35;265496;1304;545191;-90
2024/01/23 05:30:09;;;;;;;53.30;26.20;;;;;;;0.56;100.00;99249.22;271368;1279;23611;-90
2024/01/23 05:36:11;;;;;;;56.30;27.60;;;;;;;0.60;100.00;99246.77;271823;1279;171939;-90
2024/01/23 05:42:14;;;;;;;72.50;34.50;;;;;;;0.61;100.00;99263.71;271678;1276;22222;-91
2024/01/23 05:48:16;;;;;;;74.70;36.50;;;;;;;0.58;100.00;99271.28;271975;1279;22326;-90
2024/01/23 05:54:18;;;;;;;62.70;29.90;;;;;;;0.55;100.00;99272.25;272181;1277;22438;-90
2024/01/23 06:00:20;;;;;;;70.70;36.20;;;;;;;0.47;100.00;99280.79;272386;1275;22187;-89
2024/01/23 06:06:22;;;;;;;74.80;38.00;;;;;;;0.41;100.00;99287.83;272502;1275;22353;-90
2024/01/23 06:12:24;;;;;;;90.30;44.60;;;;;;;0.38;100.00;99282.76;272514;1275;22508;-90
2024/01/23 06:18:25;;;;;;;73.90;38.10;;;;;;;0.33;100.00;99284.74;274074;1265;22428;-90
2024/01/23 06:24:31;;;;;;;67.10;34.60;;;;;;;0.22;100.00;99282.39;274139;1266;22369;-90
2024/01/23 06:30:33;;;;;;;59.60;31.00;;;;;;;0.09;100.00;99288.52;273664;1264;22400;-91
2024/01/23 06:36:37;;;;;;;50.70;27.10;;;;;;;-0.02;100.00;99294.00;273865;1265;22427;-90
2024/01/23 06:42:39;;;;;;;71.50;33.80;;;;;;;-0.06;100.00;99309.73;273579;1257;22217;-90
2024/01/23 06:48:45;;;;;;;61.40;33.70;;;;;;;-0.10;100.00;99321.45;273888;1265;22377;-90
2024/01/23 06:54:48;;;;;;;65.50;35.40;;;;;;;-0.10;100.00;99329.84;273722;1266;23476;-91
2024/01/23 07:00:50;;;;;;;72.40;39.20;;;;;;;-0.14;100.00;99337.88;273800;1265;23158;-90
2024/01/23 07:06:52;;;;;;;69.90;36.20;;;;;;;-0.16;100.00;99344.69;274142;1265;23011;-91
2024/01/23 07:12:55;;;;;;;70.40;37.90;;;;;;;-0.16;100.00;99349.48;274134;1266;22297;-91
2024/01/23 07:18:57;;;;;;;65.70;34.60;;;;;;;-0.19;100.00;99364.27;274024;1266;22259;-90
2024/01/23 07:25:01;;;;;;;70.60;37.20;;;;;;;-0.20;100.00;99365.97;273943;1267;22329;-91
2024/01/23 07:31:06;;;;;;;56.30;31.00;;;;;;;-0.17;100.00;99375.33;273579;1266;23544;-91
2024/01/23 07:37:08;;;;;;;61.00;31.90;;;;;;;-0.18;100.00;99388.09;273829;1266;22396;-92
2024/01/23 07:43:13;;;;;;;73.70;38.60;;;;;;;-0.19;100.00;99387.42;273656;1267;22555;-91
2024/01/23 07:49:16;;;;;;;96.80;49.30;;;;;;;0.02;100.00;99386.52;272962;1266;22533;-90
2024/01/23 07:55:22;;;;;;;116.00;56.60;;;;;;;0.32;100.00;99394.36;271525;1266;22446;-91
2024/01/23 08:01:24;;;;;;;126.80;60.40;;;;;;;0.67;100.00;99404.61;273643;1261;22412;-90
2024/01/23 08:07:26;;;;;;;137.30;65.20;;;;;;;1.20;100.00;99410.38;273640;1267;22476;-91
2024/01/23 08:13:28;;;;;;;161.00;78.30;;;;;;;1.55;100.00;99418.91;273950;1254;22287;-91
2024/01/23 08:19:30;;;;;;;166.00;74.90;;;;;;;1.85;100.00;99429.30;273437;1265;23332;-90
2024/01/23 08:25:32;;;;;;;201.80;92.60;;;;;;;2.48;100.00;99438.26;273944;1264;23643;-92
2024/01/23 08:31:34;;;;;;;168.70;88.30;;;;;;;3.20;100.00;99448.10;271565;1265;22557;-91
2024/01/23 08:37:35;;;;;;;195.60;97.20;;;;;;;3.96;100.00;99452.89;273731;1266;22454;-91
2024/01/23 08:43:37;;;;;;;185.70;90.10;;;;;;;4.65;100.00;99453.12;274053;1266;22190;-91
2024/01/23 08:49:39;;;;;;;214.40;98.90;;;;;;;4.95;100.00;99452.86;273214;1249;24199;-91
2024/01/23 08:55:41;;;;;;;187.00;82.30;;;;;;;4.59;100.00;99460.77;272688;1266;22205;-91
2024/01/23 09:01:43;;;;;;;165.80;73.30;;;;;;;4.36;100.00;99465.04;272430;1266;22542;-89
2024/01/23 09:07:45;;;;;;;155.20;71.40;;;;;;;4.62;100.00;99472.34;272795;1266;22356;-90
2024/01/23 09:13:47;;;;;;;124.30;56.80;;;;;;;4.64;100.00;99468.41;270480;1265;23313;-90
2024/01/23 09:19:49;;;;;;;142.70;61.20;;;;;;;4.48;100.00;99468.35;271200;1266;22370;-90
2024/01/23 09:25:51;;;;;;;129.70;55.30;;;;;;;4.51;100.00;99465.84;274157;1265;22308;-90
2024/01/23 09:31:53;;;;;;;115.20;46.80;;;;;;;4.55;100.00;99472.61;273252;1265;22380;-90
2024/01/23 09:37:55;;;;;;;102.70;41.60;;;;;;;4.61;100.00;99476.81;273629;1266;22288;-90
2024/01/23 09:43:57;;;;;;;86.80;35.50;;;;;;;4.63;100.00;99473.00;273900;1266;22282;-89
2024/01/23 09:49:59;;;;;;;79.40;32.50;;;;;;;4.60;100.00;99476.14;272855;1269;22524;-90
2024/01/23 09:56:01;;;;;;;63.30;26.50;;;;;;;4.65;100.00;99474.19;273282;1266;22768;-91
2024/01/23 10:02:04;;;;;;;61.90;26.00;;;;;;;4.77;100.00;99473.97;271381;1265;23832;-89
2024/01/23 10:08:05;;;;;;;63.50;24.60;;;;;;;4.95;100.00;99477.95;272847;1265;22399;-90
2024/01/23 10:14:07;;;;;;;70.80;31.20;;;;;;;5.12;100.00;99487.80;273931;1264;22233;-90
2024/01/23 10:20:10;;;;;;;79.60;33.60;;;;;;;5.23;100.00;99494.86;272475;1265;22548;-91
2024/01/23 10:26:12;;;;;;;66.00;26.50;;;;;;;5.24;100.00;99499.30;273529;1265;22198;-91
2024/01/23 10:32:15;;;;;;;62.70;26.30;;;;;;;5.26;100.00;99502.25;273186;1267;22289;-90
2024/01/23 10:38:17;;;;;;;49.20;20.80;;;;;;;5.33;100.00;99502.54;271290;1266;22566;-91
2024/01/23 10:44:21;;;;;;;47.10;21.90;;;;;;;5.30;100.00;99507.83;271173;1265;22556;-91
2024/01/23 10:50:23;;;;;;;43.20;19.70;;;;;;;5.22;100.00;99519.71;270655;1265;23149;-91
2024/01/23 10:56:28;;;;;;;46.20;20.80;;;;;;;5.11;100.00;99524.52;273168;1251;22399;-91
2024/01/23 11:02:51;;;;;;;53.20;22.60;;;;;;;4.97;100.00;99527.14;272005;1266;22584;-90
2024/01/23 11:09:02;;;;;;;55.30;23.90;;;;;;;4.87;100.00;99534.38;271113;1265;22621;-89
2024/01/23 11:15:11;;;;;;;44.30;21.90;;;;;;;4.77;100.00;99538.71;272779;1265;22428;-89
2024/01/23 11:21:14;;;;;;;51.50;22.30;;;;;;;4.68;100.00;99545.21;273999;1265;23486;-89
2024/01/23 11:27:26;;;;;;;40.50;20.70;;;;;;;4.57;100.00;99547.77;270896;1265;22663;-89
2024/01/23 11:33:28;;;;;;;44.80;22.10;;;;;;;4.47;100.00;99552.05;270656;1265;22719;-90
2024/01/23 11:39:32;;;;;;;47.20;21.60;;;;;;;4.39;100.00;99559.33;273051;1265;22464;-89
2024/01/23 11:45:36;;;;;;;57.60;24.10;;;;;;;4.32;100.00;99560.35;272943;1265;22551;-88
2024/01/23 11:51:38;;;;;;;46.80;22.60;;;;;;;4.28;100.00;99567.05;271295;1266;24146;-90
2024/01/23 11:57:40;;;;;;;44.50;20.30;;;;;;;4.26;100.00;99563.58;272610;1265;22376;-89
2024/01/23 12:03:49;;;;;;;41.90;19.20;;;;;;;4.23;100.00;99567.09;274172;1265;24213;-90
2024/01/23 12:09:50;;;;;;;38.40;19.00;;;;;;;4.18;100.00;99578.10;274121;1266;22473;-90
2024/01/23 12:15:55;;;;;;;48.30;20.30;;;;;;;4.18;100.00;99579.56;271740;1265;22327;-91
2024/01/23 12:21:58;;;;;;;39.40;19.00;;;;;;;4.17;100.00;99583.60;271582;1266;23522;-90
2024/01/23 12:28:00;;;;;;;37.20;17.40;;;;;;;4.17;100.00;99587.47;273258;1269;22284;-90
2024/01/23 12:34:02;;;;;;;34.10;17.00;;;;;;;4.27;100.00;99587.37;273197;1253;22428;-89
2024/01/23 12:40:14;;;;;;;37.40;18.00;;;;;;;4.43;100.00;99589.02;274180;1265;23064;-90
2024/01/23 12:46:15;;;;;;;37.70;19.20;;;;;;;4.59;100.00;99585.88;274167;1266;23070;-90
2024/01/23 12:52:18;;;;;;;50.40;23.00;;;;;;;4.83;100.00;99584.44;273622;1265;22444;-90
2024/01/23 12:58:20;;;;;;;48.80;23.30;;;;;;;5.03;100.00;99596.00;273148;1267;22355;-91
2024/01/23 13:04:25;;;;;;;42.50;21.10;;;;;;;5.07;100.00;99601.58;274075;1265;23130;-90
2024/01/23 13:10:27;;;;;;;45.10;22.00;;;;;;;5.01;100.00;99611.88;272888;1266;22612;-91
2024/01/23 13:16:29;;;;;;;45.00;20.20;;;;;;;5.02;100.00;99613.36;273874;1265;22212;-89
2024/01/23 13:22:31;;;;;;;38.30;16.90;;;;;;;5.05;100.00;99620.02;273834;1266;22422;-91
2024/01/23 13:28:33;;;;;;;37.40;18.60;;;;;;;5.06;100.00;99621.38;274089;1266;22430;-91
2024/01/23 13:34:36;;;;;;;44.00;21.10;;;;;;;5.09;100.00;99610.19;273573;1266;22472;-90
2024/01/23 13:40:38;;;;;;;31.90;16.50;;;;;;;5.10;100.00;99611.80;273486;1266;22216;-91
2024/01/23 13:46:40;;;;;;;29.90;14.30;;;;;;;5.15;100.00;99626.65;273107;1265;25293;-90
2024/01/23 13:52:46;;;;;;;27.00;12.70;;;;;;;5.21;100.00;99631.27;271991;1265;23204;-91
2024/01/23 13:58:48;;;;;;;25.10;12.80;;;;;;;5.22;100.00;99650.00;273696;1269;22434;-91
2024/01/23 14:04:53;;;;;;;23.80;11.50;;;;;;;5.22;100.00;99665.27;273723;1265;22403;-90
2024/01/23 14:10:55;;;;;;;31.30;14.50;;;;;;;5.20;100.00;99666.80;273063;1266;22442;-91
2024/01/23 14:16:57;;;;;;;30.60;14.90;;;;;;;5.16;100.00;99678.34;273493;1265;23210;-91
2024/01/23 14:23:00;;;;;;;27.80;14.90;;;;;;;5.12;100.00;99678.15;272046;1266;22795;-90
2024/01/23 14:29:02;;;;;;;28.90;17.00;;;;;;;5.06;100.00;99688.06;273841;1269;22459;-91
2024/01/23 14:35:04;;;;;;;31.00;16.20;;;;;;;4.99;100.00;99689.98;272658;1268;22554;-90
2024/01/23 14:41:08;;;;;;;30.70;15.30;;;;;;;4.91;100.00;99700.43;271580;1267;22570;-90
2024/01/23 14:47:10;;;;;;;35.00;17.70;;;;;;;4.84;100.00;99707.65;270429;1267;24258;-91
2024/01/23 14:53:12;;;;;;;37.70;18.90;;;;;;;4.75;100.00;99721.44;272083;1267;22583;-91
2024/01/23 14:59:14;;;;;;;28.90;14.70;;;;;;;4.65;100.00;99730.46;273819;1267;22404;-92
2024/01/23 15:05:16;;;;;;;28.70;14.60;;;;;;;4.55;100.00;99731.88;273748;1266;22381;-91
2024/01/23 15:11:18;;;;;;;37.90;15.10;;;;;;;4.48;100.00;99735.80;273811;1269;22407;-89
2024/01/23 15:17:23;;;;;;;22.70;12.70;;;;;;;4.42;100.00;99742.20;273307;1267;23715;-90
2024/01/23 15:23:27;;;;;;;27.40;13.10;;;;;;;4.38;100.00;99747.81;272041;1266;22471;-88
2024/01/23 15:29:29;;;;;;;25.60;13.60;;;;;;;4.32;100.00;99767.34;274072;1266;22483;-89
2024/01/23 15:35:33;;;;;;;27.90;14.30;;;;;;;4.18;100.00;99769.56;272574;1266;22575;-90
2024/01/23 15:41:36;;;;;;;34.40;17.80;;;;;;;4.00;100.00;99779.73;271947;1265;22228;-91
2024/01/23 15:47:38;;;;;;;41.50;19.00;;;;;;;3.79;100.00;99794.88;273162;1266;22462;-90
2024/01/23 15:53:40;;;;;;;49.20;21.10;;;;;;;3.67;100.00;99812.20;272077;1268;23691;-90
2024/01/23 15:59:42;;;;;;;32.00;15.40;;;;;;;3.64;100.00;99823.65;273989;1268;22941;-90
2024/01/23 16:05:44;;;;;;;25.00;12.90;;;;;;;3.69;100.00;99835.81;273898;1265;23009;-91
2024/01/23 16:11:56;;;;;;;24.90;12.10;;;;;;;3.75;100.00;99853.70;271996;1266;25536;-91
2024/01/23 16:18:08;;;;;;;22.40;10.10;;;;;;;3.80;100.00;99862.34;270845;1270;22623;-90
2024/01/23 16:24:12;;;;;;;19.80;9.70;;;;;;;3.86;100.00;99864.41;272716;1268;22273;-91
2024/01/23 16:30:14;;;;;;;22.80;11.30;;;;;;;3.94;100.00;99857.48;273773;1256;23412;-90
2024/01/23 16:36:16;;;;;;;17.70;8.40;;;;;;;3.95;100.00;99868.34;272797;1259;22345;-89
2024/01/23 16:42:18;;;;;;;22.60;10.80;;;;;;;3.94;100.00;99869.98;272574;1269;22657;-89
2024/01/23 16:48:23;;;;;;;23.70;10.20;;;;;;;3.91;100.00;99878.48;271619;1269;25398;-91
2024/01/23 16:54:28;;;;;;;25.10;11.40;;;;;;;3.88;100.00;99886.85;272096;1268;22660;-91
2024/01/23 17:00:33;;;;;;;16.90;8.00;;;;;;;3.87;100.00;99903.71;272741;1266;23499;-89
2024/01/23 17:06:36;;;;;;;18.90;8.60;;;;;;;3.83;100.00;99902.90;273764;1265;22269;-91
2024/01/23 17:12:41;;;;;;;21.90;8.40;;;;;;;3.82;100.00;99912.98;272705;1267;22826;-90
2024/01/23 17:18:52;;;;;;;21.30;9.50;;;;;;;3.83;100.00;99918.77;274022;1265;25409;-89
2024/01/23 17:24:54;;;;;;;21.60;10.60;;;;;;;3.81;100.00;99920.75;273274;1265;22299;-90
2024/01/23 17:30:57;;;;;;;25.70;9.80;;;;;;;3.82;100.00;99919.71;273403;1266;22538;-90
2024/01/23 17:36:59;;;;;;;17.80;8.00;;;;;;;3.84;100.00;99936.23;272941;1266;278676;-90
2024/01/23 17:43:07;;;;;;;18.50;8.30;;;;;;;3.86;100.00;99937.82;274130;1266;22287;-89
2024/01/23 17:49:09;;;;;;;18.50;8.70;;;;;;;3.90;100.00;99943.39;273923;1266;22406;-88
2024/01/23 17:55:11;;;;;;;21.00;10.20;;;;;;;3.92;100.00;99953.32;273525;1266;22395;-90
2024/01/23 18:01:15;;;;;;;21.60;9.70;;;;;;;3.92;100.00;99953.64;272112;1266;22229;-89
2024/01/23 18:07:18;;;;;;;25.30;10.90;;;;;;;3.93;100.00;99967.27;271891;1267;22520;-90
2024/01/23 18:13:20;;;;;;;24.90;11.20;;;;;;;3.91;100.00;99971.60;271099;1267;24311;-89
2024/01/23 18:19:25;;;;;;;24.30;11.40;;;;;;;3.91;100.00;99974.48;272630;1268;22557;-89
2024/01/23 18:25:28;;;;;;;24.50;10.50;;;;;;;3.90;100.00;99981.44;271470;1270;22537;-89
2024/01/23 18:31:32;;;;;;;24.00;9.10;;;;;;;3.90;100.00;99981.31;270757;1271;22578;-90
2024/01/23 18:37:36;;;;;;;23.60;11.00;;;;;;;3.89;100.00;99987.67;271849;1268;22231;-90
2024/01/23 18:43:42;;;;;;;;;;;;;;;3.90;100.00;99988.10;273241;1265;22555;-91
2024/01/23 18:49:55;;;;;;;25.80;10.50;;;;;;;3.91;100.00;99990.50;274038;1270;22209;-91
2024/01/23 18:56:10;;;;;;;17.50;7.90;;;;;;;3.93;100.00;99999.73;273287;1269;22541;-90
2024/01/23 19:02:15;;;;;;;20.30;7.90;;;;;;;3.92;100.00;100012.20;273730;1267;22431;-91
2024/01/23 19:08:19;;;;;;;23.30;8.80;;;;;;;3.94;100.00;100017.13;274098;1259;23340;-89
2024/01/23 19:14:21;;;;;;;22.20;9.30;;;;;;;3.96;100.00;100015.14;272986;1268;24218;-90
2024/01/23 19:20:23;;;;;;;30.10;9.00;;;;;;;3.98;100.00;100007.84;273887;1265;22389;-90
2024/01/23 19:26:25;;;;;;;19.60;8.30;;;;;;;3.98;100.00;100016.55;274108;1269;23420;-90
2024/01/23 19:32:29;;;;;;;20.10;8.90;;;;;;;4.00;100.00;100020.98;273521;1266;23125;-90
2024/01/23 19:38:31;;;;;;;26.30;10.20;;;;;;;3.99;100.00;100011.13;274120;1272;22520;-90
2024/01/23 19:44:33;;;;;;;20.30;10.00;;;;;;;3.97;100.00;100018.05;274226;1268;22206;-90
2024/01/23 19:50:39;;;;;;;22.60;9.10;;;;;;;3.99;100.00;100025.21;273685;1269;23748;-90
2024/01/23 19:56:44;;;;;;;22.90;9.60;;;;;;;4.04;100.00;100033.44;273604;1265;22272;-90
2024/01/23 20:02:46;;;;;;;27.80;9.40;;;;;;;4.05;100.00;100027.55;274148;1266;22410;-91
2024/01/23 20:08:48;;;;;;;22.70;11.00;;;;;;;4.04;100.00;100035.07;274169;1271;22429;-90
2024/01/23 20:14:51;;;;;;;32.20;11.70;;;;;;;4.01;100.00;100019.50;274240;1269;22463;-89
2024/01/23 20:20:55;;;;;;;41.80;15.20;;;;;;;3.98;100.00;100012.92;274200;1271;22278;-91
2024/01/23 20:27:01;;;;;;;37.50;14.90;;;;;;;3.98;100.00;100005.84;274123;1266;23753;-90
2024/01/23 20:33:05;;;;;;;29.50;12.90;;;;;;;3.96;100.00;100013.29;274290;1267;22388;-89
2024/01/23 20:39:08;;;;;;;38.00;13.70;;;;;;;3.95;100.00;100012.14;274094;1270;22405;-89
2024/01/23 20:45:11;;;;;;;26.00;11.60;;;;;;;3.95;100.00;100008.61;273309;1270;23288;-90
2024/01/23 20:51:15;;;;;;;30.00;11.50;;;;;;;3.97;100.00;100019.30;273971;1267;22210;-90
2024/01/23 20:57:19;;;;;;;32.80;12.30;;;;;;;3.96;100.00;100020.47;273898;1267;22217;-89
2024/01/23 21:03:21;;;;;;;23.20;8.70;;;;;;;3.92;100.00;100023.38;258873;1267;20001972;-89
2024/01/23 21:09:23;;;;;;;31.60;11.20;;;;;;;3.91;100.00;100024.55;274056;1267;22191;-90
2024/01/23 21:15:35;;;;;;;22.00;9.00;;;;;;;3.90;100.00;100030.84;273993;1265;25281;-89
2024/01/23 21:21:38;;;;;;;19.90;8.70;;;;;;;3.86;100.00;100035.42;271995;1254;23915;-89
2024/01/23 21:27:40;;;;;;;31.20;11.00;;;;;;;3.79;100.00;100033.26;271948;1266;24756;-89
2024/01/23 21:33:43;;;;;;;26.80;11.30;;;;;;;3.72;100.00;100030.77;273886;1266;22196;-91
2024/01/23 21:39:54;;;;;;;30.10;10.90;;;;;;;3.65;100.00;100032.87;274081;1267;23331;-89
2024/01/23 21:46:00;;;;;;;23.30;10.50;;;;;;;3.57;100.00;100036.68;272689;1266;22579;-91
2024/01/23 21:52:08;;;;;;;24.60;10.60;;;;;;;3.49;100.00;100030.80;272794;1267;23125;-91
2024/01/23 21:58:14;;;;;;;26.70;10.00;;;;;;;3.36;100.00;100030.19;271973;1269;26083;-90
2024/01/23 22:04:17;;;;;;;27.40;11.20;;;;;;;3.22;100.00;100037.57;270844;1267;22595;-91
2024/01/23 22:10:20;;;;;;;26.20;11.00;;;;;;;3.05;100.00;100040.08;271849;1269;22576;-90
2024/01/23 22:16:24;;;;;;;30.60;9.90;;;;;;;2.88;100.00;100033.80;273249;1265;22238;-90
2024/01/23 22:22:26;;;;;;;26.50;11.40;;;;;;;2.74;100.00;100028.48;274116;1259;23360;-90
2024/01/23 22:28:28;;;;;;;29.90;13.00;;;;;;;2.66;100.00;100026.70;273438;1266;24256;-91
2024/01/23 22:34:30;;;;;;;30.30;13.80;;;;;;;2.54;100.00;100011.08;271044;1267;22624;-90
2024/01/23 22:40:32;;;;;;;30.50;14.00;;;;;;;2.33;100.00;100007.61;271679;1265;23267;-91
2024/01/23 22:46:42;;;;;;;33.20;13.90;;;;;;;2.14;100.00;100002.95;273092;1266;23409;-91
2024/01/23 22:52:44;;;;;;;30.30;13.70;;;;;;;1.97;100.00;99990.33;273989;1265;23188;-91
2024/01/23 22:58:46;;;;;;;35.70;16.50;;;;;;;1.85;100.00;99981.93;272951;1265;24348;-91
2024/01/23 23:04:48;;;;;;;37.00;13.50;;;;;;;1.79;100.00;99980.30;274338;1265;22259;-92
2024/01/23 23:10:50;;;;;;;31.00;14.10;;;;;;;1.72;100.00;99968.54;274117;1265;23794;-91
2024/01/23 23:16:52;;;;;;;41.00;16.50;;;;;;;1.58;100.00;99954.39;271481;1266;22595;-90
2024/01/23 23:22:54;;;;;;;45.70;17.80;;;;;;;1.45;100.00;99955.00;270708;1265;22587;-91
2024/01/23 23:28:56;;;;;;;42.20;15.90;;;;;;;1.29;100.00;99962.73;271089;1267;22584;-90
2024/01/23 23:34:58;;;;;;;36.50;15.50;;;;;;;1.20;100.00;99954.84;271353;1266;22991;-91
2024/01/23 23:41:00;;;;;;;41.60;15.70;;;;;;;1.13;100.00;99938.20;272765;1266;22566;-91
2024/01/23 23:47:02;;;;;;;38.60;15.70;;;;;;;1.06;100.00;99946.05;271350;1265;22322;-90
2024/01/23 23:53:04;;;;;;;40.40;16.70;;;;;;;1.00;100.00;99944.79;271095;1258;23875;-91
2024/01/23 23:59:09;;;;;;;41.60;16.40;;;;;;;0.92;100.00;99940.14;271074;1266;22561;-90
